createdAt,value
2023-01-07T00:01:38.017Z,29.15
2023-01-07T00:04:07.469Z,28.70
2023-01-07T00:06:38.414Z,26.98
2023-01-07T00:09:08.548Z,31.35
2023-01-07T00:11:38.733Z,34.78
2023-01-07T00:14:09.511Z,35.85
2023-01-07T00:16:37.657Z,29.73
2023-01-07T00:19:06.698Z,32.40
2023-01-07T00:21:34.396Z,30.98
2023-01-07T00:24:04.061Z,35.25
2023-01-07T00:26:34.109Z,32.60
2023-01-07T00:29:01.604Z,30.40
2023-01-07T00:31:32.863Z,31.25
2023-01-07T00:34:00.516Z,25.48
2023-01-07T00:36:32.007Z,31.40
2023-01-07T00:39:01.518Z,32.33
2023-01-07T00:41:30.190Z,34.40
2023-01-07T00:43:57.796Z,31.27
2023-01-07T00:46:25.740Z,29.35
2023-01-07T00:48:53.022Z,28.30
2023-01-07T00:51:20.454Z,28.45
2023-01-07T00:53:47.745Z,30.70
2023-01-07T00:56:16.263Z,31.85
2023-01-07T00:58:43.782Z,27.73
2023-01-07T01:01:12.218Z,29.30
2023-01-07T01:03:40.577Z,31.63
2023-01-07T01:06:14.397Z,26.50
2023-01-07T01:08:43.871Z,20.25
2023-01-07T01:11:13.076Z,30.25
2023-01-07T01:13:40.762Z,29.10
2023-01-07T01:16:10.866Z,33.20
2023-01-07T01:18:38.694Z,31.00
2023-01-07T01:21:08.424Z,31.58
2023-01-07T01:23:35.932Z,29.48
2023-01-07T01:26:06.271Z,29.98
2023-01-07T01:28:34.352Z,27.48
2023-01-07T01:31:01.838Z,30.08
2023-01-07T01:33:38.192Z,27.05
2023-01-07T01:36:10.232Z,28.13
2023-01-07T01:38:38.014Z,27.52
2023-01-07T01:41:06.606Z,27.17
2023-01-07T01:43:39.060Z,27.55
2023-01-07T01:46:45.146Z,27.98
2023-01-07T01:49:33.294Z,31.02
2023-01-07T01:52:11.106Z,28.63
2023-01-07T01:54:42.304Z,29.63
2023-01-07T01:57:10.059Z,28.30
2023-01-07T01:59:42.549Z,29.92
2023-01-07T02:02:15.463Z,27.30
2023-01-07T02:04:43.206Z,30.60
2023-01-07T02:07:17.707Z,29.45
2023-01-07T02:10:01.354Z,28.35
2023-01-07T02:12:43.947Z,26.40
2023-01-07T02:15:36.366Z,32.47
2023-01-07T02:18:10.261Z,32.70
2023-01-07T02:20:58.420Z,20.05
2023-01-07T02:23:45.384Z,29.83
2023-01-07T02:26:52.355Z,30.67
2023-01-07T02:29:59.928Z,33.83
2023-01-07T02:32:54.577Z,36.92
2023-01-07T02:35:23.865Z,26.90
2023-01-07T02:38:23.881Z,27.23
2023-01-07T02:40:51.049Z,27.83
2023-01-07T02:43:47.425Z,25.17
2023-01-07T02:46:23.372Z,24.17
2023-01-07T02:48:52.488Z,27.02
2023-01-07T02:51:20.675Z,27.30
2023-01-07T02:53:49.794Z,25.02
2023-01-07T02:56:33.239Z,24.98
2023-01-07T02:59:21.309Z,27.88
2023-01-07T03:02:09.856Z,27.45
2023-01-07T03:04:56.865Z,24.60
2023-01-07T03:07:31.644Z,25.25
2023-01-07T03:10:11.592Z,25.50
2023-01-07T03:12:46.160Z,25.70
2023-01-07T03:15:32.361Z,18.83
2023-01-07T03:18:05.210Z,22.42
2023-01-07T03:20:35.969Z,24.65
2023-01-07T03:23:06.713Z,24.17
2023-01-07T03:25:39.259Z,26.52
2023-01-07T03:28:08.103Z,22.80
2023-01-07T03:30:37.161Z,26.50
2023-01-07T03:33:15.051Z,25.02
2023-01-07T03:35:48.187Z,24.05
2023-01-07T03:38:18.528Z,23.25
2023-01-07T03:40:45.853Z,24.85
2023-01-07T03:43:15.051Z,23.38
2023-01-07T03:45:43.413Z,25.10
2023-01-07T03:48:10.842Z,21.70
2023-01-07T03:50:39.176Z,28.00
2023-01-07T03:53:07.636Z,27.08
2023-01-07T03:55:37.147Z,25.13
2023-01-07T03:58:04.332Z,24.38
2023-01-07T04:00:31.675Z,21.38
2023-01-07T04:03:08.469Z,24.05
2023-01-07T04:05:40.175Z,20.20
2023-01-07T04:08:08.665Z,22.73
2023-01-07T04:10:38.573Z,23.67
2023-01-07T04:13:05.740Z,23.05
2023-01-07T04:15:33.138Z,19.45
2023-01-07T04:18:00.394Z,19.33
2023-01-07T04:20:28.262Z,23.58
2023-01-07T04:22:55.624Z,21.65
2023-01-07T04:25:23.374Z,23.10
2023-01-07T04:27:50.789Z,24.13
2023-01-07T04:30:18.550Z,23.25
2023-01-07T04:32:45.764Z,23.50
2023-01-07T04:35:13.736Z,25.75
2023-01-07T04:37:40.891Z,22.48
2023-01-07T04:40:08.878Z,23.25
2023-01-07T04:42:37.368Z,21.40
2023-01-07T04:45:07.355Z,21.80
2023-01-07T04:47:40.331Z,22.73
2023-01-07T04:50:08.604Z,21.05
2023-01-07T04:52:36.917Z,21.75
2023-01-07T04:55:05.465Z,23.48
2023-01-07T04:57:32.947Z,20.85
2023-01-07T05:00:00.423Z,22.42
2023-01-07T05:02:27.632Z,26.55
2023-01-07T05:04:54.824Z,21.33
2023-01-07T05:07:22.419Z,24.30
2023-01-07T05:09:49.713Z,22.33
2023-01-07T05:12:17.799Z,24.02
2023-01-07T05:14:44.963Z,23.50
2023-01-07T05:17:12.575Z,22.05
2023-01-07T05:19:40.569Z,24.92
2023-01-07T05:22:10.888Z,23.33
2023-01-07T05:24:40.637Z,23.33
2023-01-07T05:27:08.129Z,21.90
2023-01-07T05:29:36.842Z,52.85
2023-01-07T05:32:04.208Z,32.90
2023-01-07T05:34:32.714Z,27.30
2023-01-07T05:37:00.194Z,27.63
2023-01-07T05:39:27.316Z,27.17
2023-01-07T05:41:54.627Z,22.73
2023-01-07T05:44:24.563Z,21.75
2023-01-07T05:46:51.749Z,19.83
2023-01-07T05:49:18.876Z,20.48
2023-01-07T05:51:46.038Z,20.85
2023-01-07T05:54:13.143Z,25.23
2023-01-07T05:56:40.277Z,21.45
2023-01-07T05:59:07.383Z,21.85
2023-01-07T06:01:34.780Z,21.77
2023-01-07T06:04:01.891Z,24.73
2023-01-07T06:06:29.102Z,23.15
2023-01-07T06:08:56.125Z,24.33
2023-01-07T06:11:23.187Z,23.23
2023-01-07T06:13:50.573Z,20.63
2023-01-07T06:16:17.997Z,27.02
2023-01-07T06:18:45.140Z,25.67
2023-01-07T06:21:12.278Z,20.80
2023-01-07T06:23:39.469Z,22.15
2023-01-07T06:26:06.641Z,23.83
2023-01-07T06:28:34.417Z,24.33
2023-01-07T06:31:01.519Z,24.02
2023-01-07T06:33:28.747Z,27.55
2023-01-07T06:35:55.854Z,23.00
2023-01-07T06:38:22.975Z,23.08
2023-01-07T06:40:50.091Z,21.85
2023-01-07T06:43:17.287Z,22.25
2023-01-07T06:45:44.522Z,24.17
2023-01-07T06:48:11.566Z,25.80
2023-01-07T06:50:38.661Z,23.48
2023-01-07T06:53:05.889Z,23.13
2023-01-07T06:55:33.429Z,18.95
2023-01-07T06:58:00.932Z,21.55
2023-01-07T07:00:28.661Z,21.33
2023-01-07T07:02:55.992Z,23.77
2023-01-07T07:05:23.223Z,19.23
2023-01-07T07:07:51.936Z,20.83
2023-01-07T07:10:19.151Z,17.95
2023-01-07T07:12:46.457Z,20.02
2023-01-07T07:15:13.581Z,15.75
2023-01-07T07:17:40.681Z,15.75
2023-01-07T07:20:08.420Z,15.20
2023-01-07T07:22:35.733Z,11.82
2023-01-07T07:25:03.401Z,13.25
2023-01-07T07:27:30.645Z,12.52
2023-01-07T07:29:57.826Z,14.40
2023-01-07T07:32:28.543Z,13.63
2023-01-07T07:34:57.056Z,12.95
2023-01-07T07:37:24.279Z,11.63
2023-01-07T07:39:51.581Z,11.38
2023-01-07T07:42:18.736Z,12.52
2023-01-07T07:44:46.094Z,11.82
2023-01-07T07:47:13.167Z,13.52
2023-01-07T07:49:40.560Z,11.05
2023-01-07T07:52:07.750Z,11.73
2023-01-07T07:54:35.326Z,12.25
2023-01-07T07:57:04.102Z,12.63
2023-01-07T07:59:31.316Z,10.63
2023-01-07T08:01:58.603Z,10.63
2023-01-07T08:04:29.057Z,10.25
2023-01-07T08:06:56.481Z,10.88
2023-01-07T08:09:23.797Z,9.80
2023-01-07T08:11:50.941Z,12.18
2023-01-07T08:14:18.159Z,11.35
2023-01-07T08:16:45.560Z,11.70
2023-01-07T08:19:13.056Z,10.27
2023-01-07T08:21:40.226Z,12.85
2023-01-07T08:24:07.611Z,8.63
2023-01-07T08:26:34.694Z,9.43
2023-01-07T08:29:02.094Z,11.05
2023-01-07T08:31:29.421Z,9.98
2023-01-07T08:33:56.818Z,10.98
2023-01-07T08:36:24.073Z,10.48
2023-01-07T08:38:53.945Z,13.13
2023-01-07T08:41:22.485Z,14.15
2023-01-07T08:43:50.538Z,11.75
2023-01-07T08:46:17.821Z,12.20
2023-01-07T08:48:45.007Z,12.43
2023-01-07T08:51:13.012Z,11.60
2023-01-07T08:53:40.365Z,11.00
2023-01-07T08:56:07.811Z,10.32
2023-01-07T08:58:34.996Z,9.88
2023-01-07T09:01:03.694Z,9.80
2023-01-07T09:03:31.275Z,9.23
2023-01-07T09:05:58.630Z,9.13
2023-01-07T09:08:26.158Z,10.40
2023-01-07T09:10:53.346Z,12.07
2023-01-07T09:13:20.453Z,11.73
2023-01-07T09:15:47.705Z,10.02
2023-01-07T09:18:14.900Z,9.52
2023-01-07T09:20:42.273Z,8.60
2023-01-07T09:23:09.500Z,10.13
2023-01-07T09:25:36.852Z,10.20
2023-01-07T09:28:04.757Z,8.50
2023-01-07T09:30:31.912Z,12.30
2023-01-07T09:32:59.768Z,12.07
2023-01-07T09:35:27.187Z,10.95
2023-01-07T09:37:54.247Z,11.85
2023-01-07T09:40:27.879Z,12.02
2023-01-07T09:43:02.033Z,11.43
2023-01-07T09:45:35.625Z,12.13
2023-01-07T09:48:13.046Z,14.30
2023-01-07T09:50:54.932Z,13.13
2023-01-07T09:53:36.216Z,11.65
2023-01-07T09:56:11.373Z,11.73
2023-01-07T09:58:43.034Z,12.32
2023-01-07T10:01:17.894Z,13.15
2023-01-07T10:04:22.951Z,11.02
2023-01-07T10:07:13.422Z,11.27
2023-01-07T10:10:20.220Z,11.20
2023-01-07T10:13:27.337Z,10.95
2023-01-07T10:16:22.118Z,9.30
2023-01-07T10:18:56.630Z,10.20
2023-01-07T10:21:26.911Z,12.07
2023-01-07T10:24:03.442Z,12.02
2023-01-07T10:26:31.758Z,11.77
2023-01-07T10:29:11.485Z,12.48
2023-01-07T10:31:39.465Z,11.27
2023-01-07T10:34:14.834Z,12.27
2023-01-07T10:37:09.951Z,10.02
2023-01-07T10:39:42.215Z,9.75
2023-01-07T10:42:11.786Z,10.77
2023-01-07T10:44:49.775Z,12.00
2023-01-07T10:47:24.520Z,11.27
2023-01-07T10:50:19.054Z,10.07
2023-01-07T10:52:53.340Z,8.93
2023-01-07T10:55:41.543Z,10.02
2023-01-07T10:58:11.616Z,11.73
2023-01-07T11:00:40.779Z,10.00
2023-01-07T11:03:25.675Z,12.85
2023-01-07T11:05:58.057Z,10.90
2023-01-07T11:08:30.421Z,12.73
2023-01-07T11:10:58.860Z,10.48
2023-01-07T11:13:30.703Z,11.48
2023-01-07T11:16:08.374Z,9.50
2023-01-07T11:18:49.506Z,11.40
2023-01-07T11:21:42.921Z,8.65
2023-01-07T11:24:27.582Z,10.07
2023-01-07T11:27:16.212Z,11.95
2023-01-07T11:30:04.923Z,11.77
2023-01-07T11:32:35.599Z,9.73
2023-01-07T11:35:22.730Z,11.35
2023-01-07T11:37:51.074Z,11.02
2023-01-07T11:40:22.756Z,11.55
2023-01-07T11:43:10.019Z,10.25
2023-01-07T11:46:19.418Z,11.68
2023-01-07T11:48:38.762Z,10.15
2023-01-07T11:51:10.835Z,13.77
2023-01-07T11:53:57.837Z,10.07
2023-01-07T11:56:29.412Z,9.88
2023-01-07T11:59:13.558Z,10.65
2023-01-07T12:01:52.416Z,10.80
2023-01-07T12:04:20.563Z,10.35
2023-01-07T12:06:49.943Z,10.38
2023-01-07T12:09:33.911Z,10.90
2023-01-07T12:12:42.079Z,10.83
2023-01-07T12:15:30.957Z,10.85
2023-01-07T12:18:29.903Z,10.00
2023-01-07T12:20:59.718Z,12.85
2023-01-07T12:23:45.071Z,8.80
2023-01-07T12:26:16.632Z,9.38
2023-01-07T12:29:03.794Z,9.93
2023-01-07T12:31:38.696Z,10.77
2023-01-07T12:34:45.576Z,11.57
2023-01-07T12:37:32.791Z,8.60
2023-01-07T12:40:17.237Z,9.88
2023-01-07T12:42:54.055Z,12.82
2023-01-07T12:45:29.420Z,11.23
2023-01-07T12:48:03.992Z,10.75
2023-01-07T12:53:24.517Z,12.00
2023-01-07T12:55:57.786Z,9.93
2023-01-07T12:58:47.246Z,12.55
2023-01-07T13:01:39.735Z,9.07
2023-01-07T13:04:26.939Z,10.30
2023-01-07T13:07:02.111Z,12.80
2023-01-07T13:09:29.446Z,9.63
2023-01-07T13:12:41.911Z,11.18
2023-01-07T13:15:15.591Z,9.38
2023-01-07T13:17:43.882Z,12.93
2023-01-07T13:20:13.797Z,11.43
2023-01-07T13:22:54.662Z,13.25
2023-01-07T13:25:26.415Z,10.57
2023-01-07T13:28:02.983Z,12.60
2023-01-07T13:30:58.731Z,10.10
2023-01-07T13:33:29.083Z,13.30
2023-01-07T13:36:03.513Z,9.98
2023-01-07T13:38:59.181Z,10.10
2023-01-07T13:41:42.354Z,10.35
2023-01-07T13:44:49.633Z,9.40
2023-01-07T13:47:20.149Z,10.20
2023-01-07T13:49:56.828Z,11.52
2023-01-07T13:52:28.093Z,10.38
2023-01-07T13:54:57.750Z,10.48
2023-01-07T13:57:24.932Z,10.38
2023-01-07T13:59:56.064Z,8.52
2023-01-07T14:02:24.557Z,9.50
2023-01-07T14:05:11.156Z,8.82
2023-01-07T14:07:49.026Z,9.85
2023-01-07T14:10:19.458Z,12.73
2023-01-07T14:13:24.398Z,10.95
2023-01-07T14:16:06.978Z,11.80
2023-01-07T14:19:02.566Z,12.38
2023-01-07T14:21:53.325Z,15.65
2023-01-07T14:24:32.556Z,14.75
2023-01-07T14:27:13.871Z,18.27
2023-01-07T14:29:48.215Z,13.27
2023-01-07T14:32:30.642Z,13.48
2023-01-07T14:35:08.255Z,13.32
2023-01-07T14:37:39.268Z,13.00
2023-01-07T14:40:26.320Z,15.38
2023-01-07T14:42:56.072Z,14.40
2023-01-07T14:45:44.157Z,16.17
2023-01-07T14:48:29.130Z,13.93
2023-01-07T14:53:50.604Z,12.73
2023-01-07T14:56:21.908Z,11.13
2023-01-07T14:59:04.469Z,16.35
2023-01-07T15:01:44.699Z,15.02
2023-01-07T15:04:27.397Z,14.27
2023-01-07T15:06:57.151Z,14.20
2023-01-07T15:10:01.467Z,15.98
2023-01-07T15:12:53.815Z,16.65
2023-01-07T15:15:44.324Z,16.05
2023-01-07T15:18:12.648Z,15.13
2023-01-07T15:21:04.603Z,17.35
2023-01-07T15:23:47.492Z,15.45
2023-01-07T15:26:39.612Z,14.65
2023-01-07T15:29:23.372Z,15.50
2023-01-07T15:32:26.451Z,16.23
2023-01-07T15:34:54.532Z,17.58
2023-01-07T15:37:21.926Z,18.42
2023-01-07T15:39:59.106Z,18.80
2023-01-07T15:42:27.944Z,20.13
2023-01-07T15:44:57.843Z,19.98
2023-01-07T15:47:42.512Z,20.35
2023-01-07T15:50:28.816Z,23.05
2023-01-07T15:53:01.900Z,20.60
2023-01-07T15:55:37.381Z,20.58
2023-01-07T15:58:08.891Z,26.08
2023-01-07T16:00:36.565Z,25.15
2023-01-07T16:03:05.331Z,28.52
2023-01-07T16:05:32.767Z,25.92
2023-01-07T16:08:01.677Z,20.02
2023-01-07T16:10:32.636Z,22.65
2023-01-07T16:13:02.251Z,23.58
2023-01-07T16:15:32.460Z,22.83
2023-01-07T16:18:02.246Z,21.58
2023-01-07T16:20:37.366Z,23.77
2023-01-07T16:23:22.932Z,22.85
2023-01-07T16:25:57.557Z,29.50
2023-01-07T16:30:57.718Z,26.60
2023-01-07T16:33:27.889Z,29.20
2023-01-07T16:35:59.004Z,31.45
2023-01-07T16:38:26.945Z,30.30
2023-01-07T16:40:55.093Z,30.98
2023-01-07T16:43:32.737Z,37.05
2023-01-07T16:46:27.381Z,29.15
2023-01-07T16:49:20.498Z,37.10
2023-01-07T16:52:04.600Z,40.08
2023-01-07T16:54:37.498Z,36.97
2023-01-07T16:57:11.552Z,35.65
2023-01-07T16:59:38.868Z,38.65
2023-01-07T17:02:25.619Z,43.17
2023-01-07T17:04:55.561Z,40.45
2023-01-07T17:07:26.203Z,43.13
2023-01-07T17:09:56.016Z,42.47
2023-01-07T17:12:35.383Z,46.00
2023-01-07T17:15:23.611Z,46.35
2023-01-07T17:17:51.412Z,45.40
2023-01-07T17:20:23.458Z,49.40
2023-01-07T17:22:51.824Z,54.88
2023-01-07T17:25:29.510Z,55.10
2023-01-07T17:28:00.989Z,54.67
2023-01-07T17:30:35.452Z,47.17
2023-01-07T17:33:03.570Z,48.22
2023-01-07T17:35:31.177Z,50.10
2023-01-07T17:37:58.485Z,48.40
2023-01-07T17:40:26.025Z,51.38
2023-01-07T17:43:13.210Z,53.60
2023-01-07T17:45:40.580Z,58.67
2023-01-07T17:48:14.319Z,51.72
2023-01-07T17:50:42.859Z,62.70
2023-01-07T17:53:22.254Z,55.65
2023-01-07T17:55:49.522Z,56.20
2023-01-07T17:58:35.133Z,62.08
2023-01-07T18:01:07.342Z,63.50
2023-01-07T18:03:34.870Z,59.03
2023-01-07T18:06:02.561Z,57.53
2023-01-07T18:08:30.795Z,60.58
2023-01-07T18:11:18.452Z,63.58
2023-01-07T18:13:46.186Z,61.13
2023-01-07T18:16:15.757Z,59.05
2023-01-07T18:18:43.226Z,60.70
2023-01-07T18:21:12.755Z,60.72
2023-01-07T18:23:40.190Z,66.75
2023-01-07T18:26:08.519Z,79.10
2023-01-07T18:28:36.588Z,74.57
2023-01-07T18:31:05.145Z,65.20
2023-01-07T18:33:35.271Z,56.38
2023-01-07T18:36:03.660Z,55.55
2023-01-07T18:38:31.962Z,55.22
2023-01-07T18:40:59.596Z,56.65
2023-01-07T18:43:26.949Z,56.20
2023-01-07T18:45:54.717Z,60.33
2023-01-07T18:48:22.352Z,84.00
2023-01-07T18:50:50.907Z,79.18
2023-01-07T18:53:19.978Z,91.75
2023-01-07T18:55:56.896Z,70.10
2023-01-07T18:58:24.786Z,90.75
2023-01-07T19:00:52.096Z,97.60
2023-01-07T19:03:19.438Z,73.22
2023-01-07T19:05:47.283Z,79.38
2023-01-07T19:08:14.623Z,83.97
2023-01-07T19:10:42.661Z,108.55
2023-01-07T19:13:09.949Z,73.45
2023-01-07T19:15:39.179Z,88.43
2023-01-07T19:18:08.001Z,80.18
2023-01-07T19:20:36.376Z,78.43
2023-01-07T19:23:03.827Z,77.50
2023-01-07T19:25:32.101Z,102.72
2023-01-07T19:28:00.460Z,74.47
2023-01-07T19:30:28.287Z,75.72
2023-01-07T19:32:55.966Z,50.70
2023-01-07T19:35:23.382Z,75.95
2023-01-07T19:37:50.722Z,53.17
2023-01-07T19:40:18.526Z,120.82
2023-01-07T19:42:48.700Z,128.07
2023-01-07T19:45:16.665Z,75.70
2023-01-07T19:47:44.366Z,230.95
2023-01-07T19:50:12.333Z,69.68
2023-01-07T19:52:39.581Z,69.07
2023-01-07T19:55:07.789Z,92.93
2023-01-07T19:57:35.293Z,117.63
2023-01-07T20:00:03.240Z,74.65
2023-01-07T20:02:33.225Z,67.63
2023-01-07T20:05:01.186Z,67.88
2023-01-07T20:07:33.998Z,65.85
2023-01-07T20:10:01.654Z,75.85
2023-01-07T20:12:29.531Z,61.42
2023-01-07T20:14:56.855Z,64.97
2023-01-07T20:17:24.874Z,76.00
2023-01-07T20:19:52.606Z,59.25
2023-01-07T20:22:20.293Z,59.17
2023-01-07T20:24:47.579Z,93.78
2023-01-07T20:27:14.812Z,64.63
2023-01-07T20:29:42.500Z,54.22
2023-01-07T20:32:10.243Z,71.40
2023-01-07T20:34:37.861Z,69.68
2023-01-07T20:37:05.648Z,66.47
2023-01-07T20:39:33.495Z,81.55
2023-01-07T20:42:01.062Z,123.28
2023-01-07T20:44:28.574Z,95.88
2023-01-07T20:46:55.848Z,87.80
2023-01-07T20:49:24.564Z,64.15
2023-01-07T20:51:51.778Z,52.90
2023-01-07T20:54:19.112Z,126.72
2023-01-07T20:56:46.445Z,56.10
2023-01-07T20:59:16.194Z,79.25
2023-01-07T21:01:43.909Z,53.67
2023-01-07T21:04:12.424Z,64.50
2023-01-07T21:06:40.309Z,54.90
2023-01-07T21:09:07.620Z,97.20
2023-01-07T21:11:35.129Z,59.17
2023-01-07T21:14:02.259Z,90.78
2023-01-07T21:16:29.964Z,59.95
2023-01-07T21:18:57.888Z,70.18
2023-01-07T21:21:25.519Z,87.03
2023-01-07T21:23:54.151Z,85.45
2023-01-07T21:26:23.661Z,69.45
2023-01-07T21:28:56.328Z,53.10
2023-01-07T21:31:24.088Z,70.53
2023-01-07T21:33:55.071Z,77.63
2023-01-07T21:36:23.499Z,103.25
2023-01-07T21:38:56.403Z,90.93
2023-01-07T21:41:25.204Z,53.92
2023-01-07T21:43:52.621Z,74.95
2023-01-07T21:46:22.713Z,76.28
2023-01-07T21:48:50.583Z,65.50
2023-01-07T21:51:24.328Z,53.38
2023-01-07T21:53:56.028Z,60.78
2023-01-07T21:56:25.244Z,62.33
2023-01-07T21:58:52.986Z,64.20
2023-01-07T22:01:21.061Z,45.67
2023-01-07T22:03:50.113Z,54.15
2023-01-07T22:06:20.450Z,90.00
2023-01-07T22:08:48.728Z,53.70
2023-01-07T22:11:17.960Z,162.77
2023-01-07T22:13:49.076Z,76.03
2023-01-07T22:16:16.367Z,103.75
2023-01-07T22:18:43.617Z,82.07
2023-01-07T22:21:11.023Z,77.47
2023-01-07T22:23:38.498Z,84.45
2023-01-07T22:26:07.563Z,47.75
2023-01-07T22:28:37.297Z,52.05
2023-01-07T22:31:27.017Z,94.65
2023-01-07T22:33:55.354Z,58.67
2023-01-07T22:36:22.649Z,56.22
2023-01-07T22:38:51.424Z,61.92
2023-01-07T22:41:19.067Z,49.17
2023-01-07T22:43:46.393Z,43.60
2023-01-07T22:46:23.548Z,62.13
2023-01-07T22:48:52.661Z,65.55
2023-01-07T22:51:32.376Z,50.70
2023-01-07T22:54:00.959Z,50.08
2023-01-07T22:56:29.016Z,52.30
2023-01-07T22:58:56.437Z,45.60
2023-01-07T23:01:23.667Z,49.42
2023-01-07T23:03:51.426Z,41.95
2023-01-07T23:06:18.920Z,46.92
2023-01-07T23:08:48.232Z,34.08
2023-01-07T23:11:36.021Z,59.92
2023-01-07T23:14:04.047Z,64.40
2023-01-07T23:16:31.685Z,56.03
2023-01-07T23:18:58.929Z,64.53
2023-01-07T23:21:26.207Z,91.15
2023-01-07T23:23:53.397Z,50.28
2023-01-07T23:26:20.491Z,58.00
2023-01-07T23:28:47.592Z,67.32
2023-01-07T23:31:14.880Z,57.05
2023-01-07T23:33:42.218Z,55.30
2023-01-07T23:36:10.515Z,43.95
2023-01-07T23:38:37.799Z,43.33
2023-01-07T23:41:08.380Z,66.00
2023-01-07T23:43:36.076Z,33.80
2023-01-07T23:46:05.093Z,42.65
2023-01-07T23:48:34.195Z,58.78
2023-01-07T23:51:11.548Z,61.72
2023-01-07T23:53:39.080Z,51.65
2023-01-07T23:56:06.978Z,35.65
2023-01-07T23:58:35.400Z,47.35
